Time;durP1;ratioP1;P1;durP2;ratioP2;P2;SDS_P1;SDS_P2;PMS_P1;PMS_P2;Temp;Humidity;BMP_temperature;BMP_pressure;BME280_temperature;BME280_humidity;BME280_pressure;Samples;Min_cycle;Max_cycle;Signal;HPM_P1;HPM_P2
2022/09/25 00:00:56;;;;;;;5.70;2.43;;;;;;;;;;3352014;42;20126;-63
2022/09/25 00:03:23;;;;;;;7.40;2.70;;;;;;;;;;3351048;42;20085;-63
2022/09/25 00:05:49;;;;;;;5.72;2.13;;;;;;;;;;3351271;42;20100;-60
2022/09/25 00:08:15;;;;;;;7.30;2.50;;;;;;;;;;3351788;42;20159;-60
2022/09/25 00:10:43;;;;;;;6.10;2.50;;;;;;;;;;3351935;42;20088;-61
2022/09/25 00:13:09;;;;;;;5.80;2.40;;;;;;;;;;3351144;42;20153;-62
2022/09/25 00:15:35;;;;;;;9.02;2.60;;;;;;;;;;3351411;42;20100;-62
2022/09/25 00:18:01;;;;;;;7.22;2.75;;;;;;;;;;3352092;42;20146;-60
2022/09/25 00:20:27;;;;;;;7.00;3.33;;;;;;;;;;3351096;42;20475;-60
2022/09/25 00:22:53;;;;;;;7.23;2.70;;;;;;;;;;3351530;42;20563;-61
2022/09/25 00:25:19;;;;;;;6.03;2.50;;;;;;;;;;3352212;42;20147;-61
2022/09/25 00:27:45;;;;;;;8.40;2.50;;;;;;;;;;3351249;42;20179;-63
2022/09/25 00:30:12;;;;;;;5.93;2.67;;;;;;;;;;3351398;42;20105;-60
2022/09/25 00:32:38;;;;;;;6.78;2.50;;;;;;;;;;3351500;42;20096;-59
2022/09/25 00:35:04;;;;;;;6.87;2.70;;;;;;;;;;3351865;42;20111;-62
2022/09/25 00:37:33;;;;;;;8.00;2.83;;;;;;;;;;3351465;42;20899;-60
2022/09/25 00:39:59;;;;;;;7.40;2.60;;;;;;;;;;3350199;42;20085;-64
2022/09/25 00:42:25;;;;;;;8.43;2.90;;;;;;;;;;3348722;42;20112;-61
2022/09/25 00:45:20;;;;;;;7.07;3.20;;;;;;;;;;3348343;42;20115;-61
2022/09/25 00:47:54;;;;;;;8.20;2.63;;;;;;;;;;3341136;42;20593;-60
2022/09/25 00:50:33;;;;;;;10.63;2.80;;;;;;;;;;3346837;42;20089;-60
2022/09/25 00:53:09;;;;;;;6.40;2.50;;;;;;;;;;3346959;42;20586;-61
2022/09/25 00:55:35;;;;;;;8.90;3.53;;;;;;;;;;3346586;42;20091;-61
2022/09/25 00:58:01;;;;;;;8.07;2.70;;;;;;;;;;3349261;42;20100;-60
2022/09/25 01:00:26;;;;;;;6.63;2.63;;;;;;;;;;3348622;42;20356;-60
2022/09/25 01:02:53;;;;;;;7.75;2.83;;;;;;;;;;3349892;42;20093;-60
2022/09/25 01:05:25;;;;;;;6.78;2.42;;;;;;;;;;3348552;42;20081;-60
2022/09/25 01:07:51;;;;;;;6.97;2.63;;;;;;;;;;3348616;42;20093;-59
2022/09/25 01:10:18;;;;;;;14.80;2.70;;;;;;;;;;3351775;42;20515;-61
2022/09/25 01:12:47;;;;;;;7.15;3.10;;;;;;;;;;3350577;42;20096;-60
2022/09/25 01:15:14;;;;;;;6.43;2.65;;;;;;;;;;3344561;42;20081;-62
2022/09/25 01:18:07;;;;;;;6.82;3.00;;;;;;;;;;3352677;42;20621;-60
2022/09/25 01:21:07;;;;;;;7.30;2.88;;;;;;;;;;3350478;42;20128;-62
2022/09/25 01:23:44;;;;;;;7.97;2.77;;;;;;;;;;3350776;42;20562;-63
2022/09/25 01:26:19;;;;;;;6.65;2.88;;;;;;;;;;3350572;42;20080;-60
2022/09/25 01:28:55;;;;;;;6.93;2.97;;;;;;;;;;3348342;42;20607;-61
2022/09/25 01:31:34;;;;;;;7.30;3.03;;;;;;;;;;3350718;42;20136;-61
2022/09/25 01:34:20;;;;;;;7.35;2.88;;;;;;;;;;3349659;42;20179;-60
2022/09/25 01:37:04;;;;;;;10.03;2.97;;;;;;;;;;3340233;42;20633;-62
2022/09/25 01:39:34;;;;;;;6.63;2.92;;;;;;;;;;3340222;42;20212;-61
2022/09/25 01:42:05;;;;;;;6.55;2.60;;;;;;;;;;3348305;42;20089;-64
2022/09/25 01:44:33;;;;;;;8.38;2.97;;;;;;;;;;3348278;42;20076;-60
2022/09/25 01:47:04;;;;;;;7.70;2.78;;;;;;;;;;3348541;42;20554;-61
2022/09/25 01:49:36;;;;;;;7.93;2.70;;;;;;;;;;3348425;42;20099;-62
2022/09/25 01:52:03;;;;;;;6.75;2.90;;;;;;;;;;3348376;42;20077;-61
2022/09/25 01:54:32;;;;;;;8.60;2.80;;;;;;;;;;3348526;42;20096;-62
2022/09/25 01:57:23;;;;;;;7.72;2.67;;;;;;;;;;3349864;42;20139;-62
2022/09/25 01:59:53;;;;;;;8.73;2.90;;;;;;;;;;3342176;42;20189;-63
2022/09/25 02:02:21;;;;;;;6.23;2.43;;;;;;;;;;3348227;42;20094;-60
2022/09/25 02:05:29;;;;;;;6.50;2.70;;;;;;;;;;3348379;42;20084;-61
2022/09/25 02:08:07;;;;;;;7.72;2.58;;;;;;;;;;3349623;42;20643;-61
2022/09/25 02:10:40;;;;;;;6.35;2.58;;;;;;;;;;3348214;42;20108;-60
2022/09/25 02:13:09;;;;;;;7.28;2.60;;;;;;;;;;3348215;42;20148;-60
2022/09/25 02:15:38;;;;;;;6.33;2.57;;;;;;;;;;3348345;42;20093;-61
2022/09/25 02:20:59;;;;;;;6.45;2.60;;;;;;;;;;3348302;42;20187;-61
2022/09/25 02:23:52;;;;;;;6.03;2.50;;;;;;;;;;3348332;42;20126;-61
2022/09/25 02:26:28;;;;;;;8.45;2.75;;;;;;;;;;3347360;42;20096;-62
2022/09/25 02:28:55;;;;;;;6.00;2.70;;;;;;;;;;3349576;42;20092;-60
2022/09/25 02:31:34;;;;;;;7.70;2.65;;;;;;;;;;3349629;42;20128;-63
2022/09/25 02:34:00;;;;;;;6.22;2.70;;;;;;;;;;3347935;42;20096;-64
2022/09/25 02:36:26;;;;;;;6.47;2.78;;;;;;;;;;3347990;42;20108;-60
2022/09/25 02:38:52;;;;;;;7.47;2.60;;;;;;;;;;3349357;42;20582;-62
2022/09/25 02:41:23;;;;;;;6.20;2.60;;;;;;;;;;3348141;42;20199;-61
2022/09/25 02:44:15;;;;;;;7.45;2.67;;;;;;;;;;3348888;42;20092;-61
2022/09/25 02:46:50;;;;;;;8.10;2.60;;;;;;;;;;3348996;42;20170;-62
2022/09/25 02:49:43;;;;;;;7.38;2.40;;;;;;;;;;3350314;42;20565;-61
2022/09/25 02:52:22;;;;;;;8.70;2.60;;;;;;;;;;3347678;42;20160;-61
2022/09/25 02:55:14;;;;;;;7.77;3.13;;;;;;;;;;3338641;42;20471;-63
2022/09/25 02:57:47;;;;;;;7.10;2.80;;;;;;;;;;3347450;42;20152;-60
2022/09/25 03:00:13;;;;;;;7.57;2.88;;;;;;;;;;3347584;42;20110;-61
2022/09/25 03:02:39;;;;;;;7.00;3.08;;;;;;;;;;3349070;42;20231;-61
2022/09/25 03:05:06;;;;;;;6.00;2.50;;;;;;;;;;3347440;42;20076;-65
2022/09/25 03:08:36;;;;;;;7.80;2.78;;;;;;;;;;3347657;42;20102;-61
2022/09/25 03:10:17;;;;;;;7.00;2.65;;;;;;;;;;3347278;42;20163;-63
2022/09/25 03:12:43;;;;;;;8.63;2.90;;;;;;;;;;3340171;42;20093;-61
2022/09/25 03:15:10;;;;;;;6.30;2.57;;;;;;;;;;3348808;42;20160;-62
2022/09/25 03:17:38;;;;;;;6.93;2.72;;;;;;;;;;3347182;42;20157;-60
2022/09/25 03:20:05;;;;;;;6.47;2.70;;;;;;;;;;3348825;42;20134;-65
2022/09/25 03:22:32;;;;;;;7.55;2.92;;;;;;;;;;3348789;42;20084;-61
2022/09/25 03:24:58;;;;;;;7.10;3.10;;;;;;;;;;3348630;42;20236;-64
2022/09/25 03:27:26;;;;;;;7.23;3.07;;;;;;;;;;3348938;42;20568;-64
2022/09/25 03:29:54;;;;;;;8.68;3.85;;;;;;;;;;3348628;42;20163;-63
2022/09/25 03:32:20;;;;;;;8.82;3.85;;;;;;;;;;3348610;42;20100;-61
2022/09/25 03:34:46;;;;;;;10.50;3.80;;;;;;;;;;3348718;42;20096;-62
2022/09/25 03:37:12;;;;;;;9.32;3.83;;;;;;;;;;3348758;42;20093;-61
2022/09/25 03:39:38;;;;;;;8.10;3.70;;;;;;;;;;3348741;42;20099;-60
2022/09/25 03:42:04;;;;;;;7.60;3.40;;;;;;;;;;3348534;42;20640;-62
2022/09/25 03:44:30;;;;;;;8.93;3.83;;;;;;;;;;3348639;42;20106;-60
2022/09/25 03:46:56;;;;;;;8.35;3.53;;;;;;;;;;3348533;42;20077;-61
2022/09/25 03:49:22;;;;;;;7.67;3.20;;;;;;;;;;3348754;42;20077;-60
2022/09/25 03:51:48;;;;;;;12.18;3.50;;;;;;;;;;3348439;42;20096;-62
2022/09/25 03:54:14;;;;;;;8.30;3.63;;;;;;;;;;3348662;42;20096;-59
2022/09/25 03:56:40;;;;;;;8.88;3.40;;;;;;;;;;3348621;42;20156;-61
2022/09/25 03:59:06;;;;;;;8.37;3.37;;;;;;;;;;3348577;42;20734;-61
2022/09/25 04:01:32;;;;;;;7.28;3.33;;;;;;;;;;3348543;42;20089;-62
2022/09/25 04:03:59;;;;;;;7.80;3.28;;;;;;;;;;3348531;42;20107;-61
2022/09/25 04:06:25;;;;;;;8.40;3.83;;;;;;;;;;3348383;42;20136;-60
2022/09/25 04:08:52;;;;;;;10.07;3.60;;;;;;;;;;3348250;42;20080;-61
2022/09/25 04:11:19;;;;;;;8.20;3.65;;;;;;;;;;3348339;42;20191;-60
2022/09/25 04:13:45;;;;;;;8.38;3.70;;;;;;;;;;3348577;42;20128;-64
2022/09/25 04:16:12;;;;;;;8.02;3.45;;;;;;;;;;3347181;42;20092;-61
2022/09/25 04:18:39;;;;;;;8.77;3.50;;;;;;;;;;3348539;42;20097;-60
2022/09/25 04:21:07;;;;;;;7.63;3.30;;;;;;;;;;3348574;42;20582;-63
2022/09/25 04:23:33;;;;;;;7.47;3.33;;;;;;;;;;3348276;42;20077;-63
2022/09/25 04:25:59;;;;;;;7.30;3.42;;;;;;;;;;3348512;42;20094;-59
2022/09/25 04:28:25;;;;;;;7.25;3.28;;;;;;;;;;3348385;42;20132;-60
2022/09/25 04:30:51;;;;;;;7.00;3.20;;;;;;;;;;3348455;42;20144;-63
2022/09/25 04:36:02;;;;;;;7.70;3.35;;;;;;;;;;3350122;42;20107;-59
2022/09/25 04:38:31;;;;;;;7.82;3.67;;;;;;;;;;3350236;42;20100;-62
2022/09/25 04:40:59;;;;;;;7.93;3.45;;;;;;;;;;3350128;42;20100;-65
2022/09/25 04:43:29;;;;;;;7.18;3.08;;;;;;;;;;3349997;42;20092;-62
2022/09/25 04:46:00;;;;;;;8.30;3.80;;;;;;;;;;3350118;42;20171;-61
2022/09/25 04:48:26;;;;;;;8.13;3.20;;;;;;;;;;3355823;42;20108;-62
2022/09/25 04:50:52;;;;;;;8.02;3.08;;;;;;;;;;3349973;42;20085;-61
2022/09/25 04:53:18;;;;;;;7.18;3.35;;;;;;;;;;3350011;42;20080;-60
2022/09/25 04:55:45;;;;;;;8.20;3.57;;;;;;;;;;3349749;42;20164;-62
2022/09/25 04:58:11;;;;;;;9.40;4.00;;;;;;;;;;3349775;42;20085;-61
2022/09/25 05:00:37;;;;;;;8.70;3.63;;;;;;;;;;3350049;42;20179;-63
2022/09/25 05:03:03;;;;;;;7.85;3.45;;;;;;;;;;3349888;42;20491;-60
2022/09/25 05:05:30;;;;;;;7.07;3.40;;;;;;;;;;3349733;42;20115;-60
2022/09/25 05:07:57;;;;;;;11.60;3.80;;;;;;;;;;3349884;42;20103;-64
2022/09/25 05:10:26;;;;;;;8.48;3.70;;;;;;;;;;3349289;42;20089;-60
2022/09/25 05:12:59;;;;;;;7.25;3.40;;;;;;;;;;3349535;42;20847;-61
2022/09/25 05:15:27;;;;;;;9.63;3.80;;;;;;;;;;3349642;42;20218;-60
2022/09/25 05:18:00;;;;;;;7.80;3.70;;;;;;;;;;3349497;42;20178;-62
2022/09/25 05:20:26;;;;;;;8.80;3.60;;;;;;;;;;3349600;42;20684;-62
2022/09/25 05:22:56;;;;;;;8.93;3.58;;;;;;;;;;3349248;42;20680;-63
2022/09/25 05:25:24;;;;;;;8.93;3.78;;;;;;;;;;3349552;42;20080;-61
2022/09/25 05:27:53;;;;;;;8.45;3.70;;;;;;;;;;3348214;42;20144;-64
2022/09/25 05:30:19;;;;;;;8.90;3.77;;;;;;;;;;3350733;42;20155;-60
2022/09/25 05:32:49;;;;;;;11.20;4.20;;;;;;;;;;3348322;42;20549;-64
2022/09/25 05:35:17;;;;;;;8.38;3.88;;;;;;;;;;3349594;42;20155;-65
2022/09/25 05:37:43;;;;;;;10.40;3.55;;;;;;;;;;3349284;42;20960;-61
2022/09/25 05:40:09;;;;;;;11.27;4.47;;;;;;;;;;3349416;42;20092;-60
2022/09/25 05:42:35;;;;;;;8.17;3.60;;;;;;;;;;3349399;42;20611;-61
2022/09/25 05:45:01;;;;;;;8.57;3.75;;;;;;;;;;3351319;42;20092;-62
2022/09/25 05:47:27;;;;;;;10.23;3.97;;;;;;;;;;3352663;42;20092;-63
2022/09/25 05:49:53;;;;;;;9.25;4.10;;;;;;;;;;3353800;42;20080;-61
2022/09/25 05:52:18;;;;;;;8.63;3.83;;;;;;;;;;3352966;42;20077;-62
2022/09/25 05:54:45;;;;;;;8.75;4.38;;;;;;;;;;3351499;42;20191;-60
2022/09/25 05:57:11;;;;;;;10.15;4.22;;;;;;;;;;3349205;42;20100;-60
2022/09/25 05:59:37;;;;;;;7.63;3.73;;;;;;;;;;3349270;42;20088;-65
2022/09/25 06:02:03;;;;;;;9.05;3.95;;;;;;;;;;3349132;42;20491;-63
2022/09/25 06:04:29;;;;;;;8.85;3.90;;;;;;;;;;3349241;42;20140;-60
2022/09/25 06:06:55;;;;;;;7.40;3.20;;;;;;;;;;3351111;42;20107;-63
2022/09/25 06:09:21;;;;;;;8.00;3.70;;;;;;;;;;3352749;42;20084;-60
2022/09/25 06:11:47;;;;;;;8.40;4.20;;;;;;;;;;3352524;42;20163;-62
2022/09/25 06:14:13;;;;;;;8.05;3.50;;;;;;;;;;3352100;42;20239;-63
2022/09/25 06:16:39;;;;;;;7.90;3.63;;;;;;;;;;3350004;42;20120;-64
2022/09/25 06:19:05;;;;;;;7.23;3.40;;;;;;;;;;3347179;42;20108;-64
2022/09/25 06:21:31;;;;;;;7.50;3.40;;;;;;;;;;3352612;42;20088;-62
2022/09/25 06:23:57;;;;;;;6.93;3.22;;;;;;;;;;3353431;42;20092;-59
2022/09/25 06:26:24;;;;;;;8.85;3.30;;;;;;;;;;3348693;42;20523;-63
2022/09/25 06:28:50;;;;;;;8.02;3.60;;;;;;;;;;3349379;42;20502;-60
2022/09/25 06:31:16;;;;;;;8.40;3.17;;;;;;;;;;3352065;42;20161;-61
2022/09/25 06:33:43;;;;;;;9.77;3.13;;;;;;;;;;3351068;42;20100;-60
2022/09/25 06:36:09;;;;;;;7.15;2.85;;;;;;;;;;3351420;42;20080;-59
2022/09/25 06:38:35;;;;;;;7.85;2.97;;;;;;;;;;3352395;42;20081;-62
2022/09/25 06:41:01;;;;;;;7.03;3.30;;;;;;;;;;3349866;42;20502;-63
2022/09/25 06:43:27;;;;;;;8.30;3.15;;;;;;;;;;3347854;42;20073;-62
2022/09/25 06:45:53;;;;;;;7.30;3.10;;;;;;;;;;3348598;42;20135;-62
2022/09/25 06:48:20;;;;;;;7.63;3.30;;;;;;;;;;3348789;42;20227;-61
2022/09/25 06:50:54;;;;;;;6.25;2.63;;;;;;;;;;3348768;42;20135;-61
2022/09/25 06:53:20;;;;;;;6.60;2.90;;;;;;;;;;3340256;42;20080;-61
2022/09/25 06:55:46;;;;;;;6.32;2.85;;;;;;;;;;3348236;42;20076;-61
2022/09/25 06:58:14;;;;;;;6.65;2.78;;;;;;;;;;3348354;42;20101;-64
2022/09/25 07:00:40;;;;;;;7.07;2.87;;;;;;;;;;3348964;42;20084;-61
2022/09/25 07:05:50;;;;;;;5.95;2.50;;;;;;;;;;3348311;42;20704;-60
2022/09/25 07:08:18;;;;;;;6.07;2.45;;;;;;;;;;3348273;42;20183;-62
2022/09/25 07:10:51;;;;;;;6.45;2.42;;;;;;;;;;3348573;42;20093;-61
2022/09/25 07:13:23;;;;;;;5.67;2.30;;;;;;;;;;3348532;42;20085;-59
2022/09/25 07:15:59;;;;;;;5.90;2.40;;;;;;;;;;3348687;42;20092;-61
2022/09/25 07:18:26;;;;;;;7.70;3.10;;;;;;;;;;3348704;42;20147;-62
2022/09/25 07:20:52;;;;;;;6.40;2.80;;;;;;;;;;3348538;42;20130;-60
2022/09/25 07:23:19;;;;;;;6.20;2.58;;;;;;;;;;3348622;42;20076;-61
2022/09/25 07:25:46;;;;;;;6.07;2.57;;;;;;;;;;3348403;42;20084;-61
2022/09/25 07:28:13;;;;;;;5.93;2.40;;;;;;;;;;3348325;42;20149;-61
2022/09/25 07:30:42;;;;;;;5.88;2.38;;;;;;;;;;3347007;42;20089;-63
2022/09/25 07:33:08;;;;;;;6.03;2.15;;;;;;;;;;3348488;42;20096;-62
2022/09/25 07:35:34;;;;;;;6.00;2.35;;;;;;;;;;3348501;42;20093;-59
2022/09/25 07:38:00;;;;;;;5.93;2.00;;;;;;;;;;3348477;42;20105;-64
2022/09/25 07:40:27;;;;;;;5.45;2.20;;;;;;;;;;3346989;42;20122;-66
2022/09/25 07:43:00;;;;;;;6.63;2.55;;;;;;;;;;3348557;42;20486;-61
2022/09/25 07:45:26;;;;;;;6.55;2.50;;;;;;;;;;3348893;42;20136;-61
2022/09/25 07:48:01;;;;;;;5.53;2.33;;;;;;;;;;3346281;42;20088;-61
2022/09/25 07:50:30;;;;;;;6.50;2.70;;;;;;;;;;3345418;42;20076;-60
2022/09/25 07:52:57;;;;;;;6.38;2.83;;;;;;;;;;3348468;42;20091;-61
2022/09/25 07:55:23;;;;;;;6.18;2.70;;;;;;;;;;3348481;42;20096;-61
2022/09/25 07:57:50;;;;;;;6.55;2.60;;;;;;;;;;3348001;42;20104;-60
2022/09/25 08:00:17;;;;;;;7.03;2.75;;;;;;;;;;3348320;42;20114;-58
2022/09/25 08:02:43;;;;;;;6.57;2.80;;;;;;;;;;3348336;42;20093;-61
2022/09/25 08:05:09;;;;;;;6.65;3.08;;;;;;;;;;3348071;42;20136;-63
2022/09/25 08:07:35;;;;;;;7.13;2.67;;;;;;;;;;3348289;42;20095;-62
2022/09/25 08:10:01;;;;;;;6.47;2.88;;;;;;;;;;3348051;42;20089;-59
2022/09/25 08:12:27;;;;;;;7.07;3.40;;;;;;;;;;3347897;42;20095;-64
2022/09/25 08:14:53;;;;;;;7.18;3.28;;;;;;;;;;3348059;42;20093;-62
2022/09/25 08:17:19;;;;;;;7.50;3.40;;;;;;;;;;3347844;42;20100;-62
2022/09/25 08:19:45;;;;;;;7.50;3.30;;;;;;;;;;3347999;42;20096;-60
2022/09/25 08:22:11;;;;;;;7.68;3.42;;;;;;;;;;3348060;42;20096;-63
2022/09/25 08:24:37;;;;;;;7.00;3.30;;;;;;;;;;3347871;42;20104;-64
2022/09/25 08:27:04;;;;;;;8.90;3.20;;;;;;;;;;3347796;42;20100;-61
2022/09/25 08:29:30;;;;;;;7.78;3.58;;;;;;;;;;3347840;42;20122;-61
2022/09/25 08:31:56;;;;;;;8.68;3.60;;;;;;;;;;3347192;42;20144;-60
2022/09/25 08:34:22;;;;;;;8.32;3.70;;;;;;;;;;3348237;42;20081;-62
2022/09/25 08:36:49;;;;;;;8.63;3.60;;;;;;;;;;3348146;42;20139;-61
2022/09/25 08:39:16;;;;;;;8.10;3.35;;;;;;;;;;3347550;42;20502;-63
2022/09/25 08:41:52;;;;;;;7.45;3.75;;;;;;;;;;3347768;42;20085;-62
2022/09/25 08:44:29;;;;;;;8.23;4.00;;;;;;;;;;3346256;42;20152;-63
2022/09/25 08:49:49;;;;;;;8.23;3.60;;;;;;;;;;3344553;42;20187;-63
2022/09/25 08:52:17;;;;;;;7.97;3.70;;;;;;;;;;3349079;42;20159;-61
2022/09/25 08:54:43;;;;;;;8.95;3.97;;;;;;;;;;3346772;42;20218;-62
2022/09/25 08:57:36;;;;;;;10.82;3.60;;;;;;;;;;3346463;42;20108;-60
2022/09/25 09:00:19;;;;;;;8.60;3.85;;;;;;;;;;3346549;42;20639;-61
2022/09/25 09:02:56;;;;;;;8.23;3.60;;;;;;;;;;3346222;42;20163;-61
2022/09/25 09:05:31;;;;;;;9.43;3.47;;;;;;;;;;3347808;42;20088;-59
2022/09/25 09:08:17;;;;;;;8.13;3.60;;;;;;;;;;3338418;42;20086;-59
2022/09/25 09:10:56;;;;;;;8.57;3.90;;;;;;;;;;3347423;42;20151;-62
2022/09/25 09:13:37;;;;;;;7.30;3.42;;;;;;;;;;3345949;42;20092;-62
2022/09/25 09:16:27;;;;;;;8.87;3.67;;;;;;;;;;3349907;42;20099;-60
2022/09/25 09:18:53;;;;;;;8.48;3.42;;;;;;;;;;3346510;42;20100;-65
2022/09/25 09:21:27;;;;;;;8.07;3.67;;;;;;;;;;3347592;42;21016;-60
2022/09/25 09:24:00;;;;;;;8.13;3.45;;;;;;;;;;3348648;42;20803;-62
2022/09/25 09:27:04;;;;;;;7.78;3.20;;;;;;;;;;3349251;42;20498;-60
2022/09/25 09:30:07;;;;;;;9.17;3.60;;;;;;;;;;3347109;42;20092;-61
2022/09/25 09:32:55;;;;;;;8.05;3.40;;;;;;;;;;3348409;42;20111;-61
2022/09/25 09:35:58;;;;;;;7.43;3.35;;;;;;;;;;3348553;42;20144;-62
2022/09/25 09:38:46;;;;;;;8.43;3.60;;;;;;;;;;3348612;42;20164;-59
2022/09/25 09:41:37;;;;;;;8.05;3.55;;;;;;;;;;3349293;42;20195;-63
2022/09/25 09:44:12;;;;;;;7.77;3.43;;;;;;;;;;3348414;42;20497;-60
2022/09/25 09:47:06;;;;;;;9.05;3.90;;;;;;;;;;3346421;42;20112;-59
2022/09/25 09:50:01;;;;;;;7.85;3.75;;;;;;;;;;3347669;42;20132;-63
2022/09/25 09:52:34;;;;;;;7.97;3.47;;;;;;;;;;3344568;42;20124;-60
2022/09/25 09:55:38;;;;;;;7.70;3.40;;;;;;;;;;3348970;42;20570;-60
2022/09/25 09:58:09;;;;;;;8.97;3.70;;;;;;;;;;3346294;42;20101;-59
2022/09/25 10:00:35;;;;;;;8.73;3.58;;;;;;;;;;3340507;42;20108;-62
2022/09/25 10:03:26;;;;;;;9.02;3.95;;;;;;;;;;3347476;42;20107;-63
2022/09/25 10:06:00;;;;;;;8.15;3.47;;;;;;;;;;3345009;42;20101;-61
2022/09/25 10:08:26;;;;;;;8.20;3.60;;;;;;;;;;3344094;42;20123;-61
2022/09/25 10:10:53;;;;;;;10.55;3.78;;;;;;;;;;3347809;42;20514;-61
2022/09/25 10:13:31;;;;;;;9.00;3.58;;;;;;;;;;3348754;42;20638;-61
2022/09/25 10:16:14;;;;;;;8.15;3.50;;;;;;;;;;3347445;42;20100;-61
2022/09/25 10:18:45;;;;;;;7.65;3.17;;;;;;;;;;3348888;42;20158;-62
2022/09/25 10:21:17;;;;;;;7.77;3.67;;;;;;;;;;3349486;42;20096;-60
2022/09/25 10:23:49;;;;;;;9.52;3.70;;;;;;;;;;3347238;42;20528;-59
2022/09/25 10:26:25;;;;;;;32.95;4.70;;;;;;;;;;3348456;42;20183;-62
2022/09/25 10:28:52;;;;;;;10.48;3.55;;;;;;;;;;3348764;42;20100;-63
2022/09/25 10:31:18;;;;;;;8.30;3.85;;;;;;;;;;3348689;42;20161;-61
2022/09/25 10:34:04;;;;;;;9.20;4.03;;;;;;;;;;3348920;42;20078;-59
2022/09/25 10:36:33;;;;;;;8.68;3.58;;;;;;;;;;3346981;42;20111;-59
2022/09/25 10:38:59;;;;;;;7.93;3.30;;;;;;;;;;3338696;42;20566;-60
2022/09/25 10:41:25;;;;;;;8.45;3.78;;;;;;;;;;3347414;42;20095;-64
2022/09/25 10:44:01;;;;;;;8.30;3.75;;;;;;;;;;3347290;42;20539;-59
2022/09/25 10:52:14;;;;;;;8.85;3.38;;;;;;;;;;3348930;42;20510;-60
2022/09/25 10:54:40;;;;;;;8.40;3.60;;;;;;;;;;3348801;42;20175;-60
2022/09/25 10:57:34;;;;;;;8.50;3.83;;;;;;;;;;3348832;42;20089;-60
2022/09/25 11:00:15;;;;;;;8.20;3.30;;;;;;;;;;3348942;42;20222;-62
2022/09/25 11:02:42;;;;;;;8.50;3.22;;;;;;;;;;3347436;42;20143;-59
2022/09/25 11:05:15;;;;;;;7.35;3.17;;;;;;;;;;3347128;42;20085;-60
2022/09/25 11:07:53;;;;;;;7.40;3.20;;;;;;;;;;3348573;42;20183;-61
2022/09/25 11:10:26;;;;;;;7.88;3.78;;;;;;;;;;3344217;42;20088;-62
2022/09/25 11:12:53;;;;;;;10.17;3.30;;;;;;;;;;3340330;42;20167;-59
2022/09/25 11:15:20;;;;;;;7.10;3.33;;;;;;;;;;3348233;42;20191;-61
2022/09/25 11:17:49;;;;;;;9.05;3.20;;;;;;;;;;3347247;42;20352;-60
2022/09/25 11:20:15;;;;;;;7.43;3.15;;;;;;;;;;3346759;42;20149;-60
2022/09/25 11:22:44;;;;;;;7.68;3.00;;;;;;;;;;3351635;42;20104;-59
2022/09/25 11:25:14;;;;;;;6.80;2.93;;;;;;;;;;3348963;42;20191;-66
2022/09/25 11:27:48;;;;;;;7.28;2.97;;;;;;;;;;3352264;42;20115;-60
2022/09/25 11:30:16;;;;;;;7.10;3.20;;;;;;;;;;3349405;42;20115;-60
2022/09/25 11:32:51;;;;;;;7.00;3.00;;;;;;;;;;3342068;42;20498;-61
2022/09/25 11:36:04;;;;;;;7.20;3.10;;;;;;;;;;3348461;42;20088;-59
2022/09/25 11:41:39;;;;;;;7.72;2.90;;;;;;;;;;3347859;42;20547;-60
2022/09/25 11:44:27;;;;;;;9.05;3.00;;;;;;;;;;3347244;42;20089;-59
2022/09/25 11:47:07;;;;;;;7.07;2.63;;;;;;;;;;3345296;42;20092;-60
2022/09/25 11:49:38;;;;;;;7.90;3.40;;;;;;;;;;3346109;42;20091;-60
2022/09/25 11:52:08;;;;;;;6.77;2.90;;;;;;;;;;3348104;42;20140;-60
2022/09/25 11:54:53;;;;;;;6.60;2.65;;;;;;;;;;3346683;42;20475;-64
2022/09/25 11:57:26;;;;;;;7.20;2.97;;;;;;;;;;3349075;42;20098;-61
2022/09/25 12:00:11;;;;;;;8.82;3.22;;;;;;;;;;3347283;42;20368;-62
2022/09/25 12:03:07;;;;;;;6.55;2.97;;;;;;;;;;3346412;42;20107;-61
2022/09/25 12:05:36;;;;;;;6.90;2.80;;;;;;;;;;3346260;42;20104;-60
2022/09/25 12:08:27;;;;;;;6.85;3.10;;;;;;;;;;3348864;42;20098;-62
2022/09/25 12:11:16;;;;;;;7.15;3.20;;;;;;;;;;3346242;42;20088;-62
2022/09/25 12:13:57;;;;;;;7.13;3.53;;;;;;;;;;3349924;42;20089;-60
2022/09/25 12:16:32;;;;;;;7.32;3.35;;;;;;;;;;3350964;42;20084;-61
2022/09/25 12:19:17;;;;;;;7.43;3.17;;;;;;;;;;3352651;42;20096;-63
2022/09/25 12:22:03;;;;;;;9.50;3.42;;;;;;;;;;3353832;42;20088;-63
2022/09/25 12:24:48;;;;;;;7.40;3.05;;;;;;;;;;3349786;42;20095;-62
2022/09/25 12:27:21;;;;;;;7.18;3.17;;;;;;;;;;3351925;42;20128;-65
2022/09/25 12:30:10;;;;;;;7.40;3.50;;;;;;;;;;3344303;42;20800;-58
2022/09/25 12:32:59;;;;;;;8.97;3.20;;;;;;;;;;3344709;42;20128;-60
2022/09/25 12:35:28;;;;;;;7.50;3.40;;;;;;;;;;3340692;42;20188;-59
2022/09/25 12:38:09;;;;;;;7.40;3.35;;;;;;;;;;3346648;42;20081;-59
2022/09/25 12:41:28;;;;;;;7.60;3.33;;;;;;;;;;3346364;42;20080;-60
2022/09/25 12:44:07;;;;;;;9.25;3.20;;;;;;;;;;3338353;42;20097;-61
2022/09/25 12:46:42;;;;;;;7.73;3.53;;;;;;;;;;3343148;42;20573;-61
2022/09/25 12:49:12;;;;;;;7.70;3.08;;;;;;;;;;3343344;42;20092;-62
2022/09/25 12:51:50;;;;;;;8.32;3.58;;;;;;;;;;3348690;42;20104;-63
2022/09/25 12:54:37;;;;;;;7.70;3.58;;;;;;;;;;3344570;42;20543;-63
2022/09/25 12:57:23;;;;;;;8.55;3.45;;;;;;;;;;3354164;42;20093;-60
2022/09/25 12:59:53;;;;;;;8.33;3.40;;;;;;;;;;3348348;42;20494;-61
2022/09/25 13:02:58;;;;;;;7.50;3.50;;;;;;;;;;3345694;42;20144;-62
2022/09/25 13:05:36;;;;;;;7.63;3.40;;;;;;;;;;3341282;42;20144;-63
2022/09/25 13:08:15;;;;;;;7.43;3.30;;;;;;;;;;3341523;42;20104;-61
2022/09/25 13:10:47;;;;;;;7.35;3.20;;;;;;;;;;3348970;42;20149;-58
2022/09/25 13:13:18;;;;;;;7.37;3.20;;;;;;;;;;3346227;42;20100;-64
2022/09/25 13:15:58;;;;;;;7.45;3.22;;;;;;;;;;3347673;42;20108;-62
2022/09/25 13:18:26;;;;;;;7.55;3.47;;;;;;;;;;3347698;42;20805;-61
2022/09/25 13:20:53;;;;;;;8.27;3.72;;;;;;;;;;3349010;42;20331;-62
2022/09/25 13:23:31;;;;;;;8.48;3.60;;;;;;;;;;3348679;42;20085;-60
2022/09/25 13:26:09;;;;;;;7.70;3.20;;;;;;;;;;3346565;42;20093;-62
2022/09/25 13:28:39;;;;;;;7.57;3.53;;;;;;;;;;3347912;42;20081;-63
2022/09/25 13:31:12;;;;;;;8.27;3.45;;;;;;;;;;3347291;42;20085;-62
2022/09/25 13:33:43;;;;;;;7.50;3.22;;;;;;;;;;3349402;42;20089;-61
2022/09/25 13:36:30;;;;;;;7.75;3.65;;;;;;;;;;3345405;42;20084;-59
2022/09/25 13:41:57;;;;;;;7.65;3.50;;;;;;;;;;3345778;42;20538;-62
2022/09/25 13:44:42;;;;;;;8.20;3.28;;;;;;;;;;3347713;42;20100;-64
2022/09/25 13:47:22;;;;;;;7.65;3.47;;;;;;;;;;3347329;42;20085;-61
2022/09/25 13:50:12;;;;;;;8.05;3.67;;;;;;;;;;3349999;42;20080;-62
2022/09/25 13:52:38;;;;;;;7.83;3.53;;;;;;;;;;3345159;42;20089;-61
2022/09/25 13:55:18;;;;;;;8.40;3.60;;;;;;;;;;3347102;42;20136;-61
2022/09/25 13:57:59;;;;;;;8.27;3.38;;;;;;;;;;3345611;42;20100;-58
2022/09/25 14:00:45;;;;;;;9.50;3.63;;;;;;;;;;3348366;42;20152;-61
2022/09/25 14:03:33;;;;;;;8.25;3.58;;;;;;;;;;3345907;42;20155;-61
2022/09/25 14:05:59;;;;;;;8.23;3.50;;;;;;;;;;3347981;42;20096;-61
2022/09/25 14:08:25;;;;;;;10.98;3.88;;;;;;;;;;3347125;42;20582;-63
2022/09/25 14:10:52;;;;;;;12.23;4.07;;;;;;;;;;3340304;42;20601;-62
2022/09/25 14:13:21;;;;;;;7.95;3.20;;;;;;;;;;3347211;42;20085;-61
2022/09/25 14:15:47;;;;;;;8.02;3.70;;;;;;;;;;3342393;42;20092;-63
2022/09/25 14:18:19;;;;;;;7.97;3.47;;;;;;;;;;3345684;42;20140;-64
2022/09/25 14:20:47;;;;;;;7.75;3.58;;;;;;;;;;3345896;42;20092;-63
2022/09/25 14:23:19;;;;;;;8.93;3.85;;;;;;;;;;3343816;42;20768;-64
2022/09/25 14:25:56;;;;;;;13.20;4.10;;;;;;;;;;3347912;42;20609;-65
2022/09/25 14:28:29;;;;;;;15.27;4.40;;;;;;;;;;3346900;42;20341;-63
2022/09/25 14:31:30;;;;;;;17.00;4.07;;;;;;;;;;3347968;42;20092;-65
2022/09/25 14:34:15;;;;;;;17.30;4.63;;;;;;;;;;3342927;42;20186;-68
2022/09/25 14:37:04;;;;;;;16.92;4.75;;;;;;;;;;3350680;42;20501;-65
2022/09/25 14:39:46;;;;;;;11.02;4.45;;;;;;;;;;3350665;42;20115;-65
2022/09/25 14:42:50;;;;;;;10.88;4.53;;;;;;;;;;3351548;42;20164;-63
2022/09/25 14:45:35;;;;;;;11.97;4.60;;;;;;;;;;3349541;42;20520;-66
2022/09/25 14:48:04;;;;;;;11.07;5.45;;;;;;;;;;3358840;42;20191;-61
2022/09/25 14:50:35;;;;;;;12.00;5.47;;;;;;;;;;3351717;42;20183;-64
2022/09/25 14:53:07;;;;;;;12.00;5.30;;;;;;;;;;3347432;42;20097;-65
2022/09/25 14:55:38;;;;;;;10.93;5.60;;;;;;;;;;3346129;42;20107;-63
2022/09/25 14:58:08;;;;;;;16.47;5.90;;;;;;;;;;3348801;42;20089;-60
2022/09/25 15:00:34;;;;;;;19.05;5.90;;;;;;;;;;3348652;42;20137;-60
2022/09/25 15:03:01;;;;;;;14.50;5.55;;;;;;;;;;3347160;42;20108;-64
2022/09/25 15:05:30;;;;;;;25.83;7.85;;;;;;;;;;3348565;42;20094;-60
2022/09/25 15:07:58;;;;;;;13.07;5.15;;;;;;;;;;3348608;42;20084;-61
2022/09/25 15:10:25;;;;;;;20.77;6.90;;;;;;;;;;3347241;42;20085;-63
2022/09/25 15:12:52;;;;;;;53.50;7.35;;;;;;;;;;3347200;42;20084;-60
2022/09/25 15:15:20;;;;;;;23.80;5.90;;;;;;;;;;3347542;42;20140;-63
2022/09/25 15:17:58;;;;;;;28.23;5.60;;;;;;;;;;3349168;42;20115;-58
2022/09/25 15:20:31;;;;;;;26.50;4.80;;;;;;;;;;3352178;42;20119;-61
2022/09/25 15:23:06;;;;;;;8.90;3.80;;;;;;;;;;3349386;42;20565;-60
2022/09/25 15:25:42;;;;;;;7.93;3.33;;;;;;;;;;3360840;42;20100;-59
2022/09/25 15:28:13;;;;;;;7.70;2.90;;;;;;;;;;3349893;42;20534;-63
2022/09/25 15:30:40;;;;;;;8.00;2.78;;;;;;;;;;3345435;42;20107;-64
2022/09/25 15:33:28;;;;;;;8.82;2.83;;;;;;;;;;3348370;42;20546;-60
2022/09/25 15:36:14;;;;;;;8.17;2.70;;;;;;;;;;3346208;42;20097;-61